Time;durP1;ratioP1;P1;durP2;ratioP2;P2;SDS_P1;SDS_P2;PMS_P1;PMS_P2;Temp;Humidity;BMP_temperature;BMP_pressure;BME280_temperature;BME280_humidity;BME280_pressure;Samples;Min_cycle;Max_cycle;Signal;HPM_P1;HPM_P2
2024/01/21 00:02:21;0.00;0.00;0.62;0.00;0.00;0.62;2.70;1.77;;;19.10;20.30;;;;;;2228016;62;20406;-67
2024/01/21 00:05:07;0.00;0.00;0.62;0.00;0.00;0.62;1.90;1.47;;;19.10;20.30;;;;;;2225699;62;20385;-68
2024/01/21 00:07:51;0.00;0.00;0.62;0.00;0.00;0.62;2.10;1.70;;;19.10;20.30;;;;;;2225693;62;20381;-67
2024/01/21 00:10:37;0.00;0.00;0.62;0.00;0.00;0.62;2.40;1.67;;;19.10;20.30;;;;;;2225638;62;20404;-74
2024/01/21 00:13:22;0.00;0.00;0.62;0.00;0.00;0.62;2.50;1.70;;;19.10;20.30;;;;;;2226723;62;20771;-68
2024/01/21 00:16:06;0.00;0.00;0.62;0.00;0.00;0.62;3.30;1.97;;;19.10;20.30;;;;;;2225745;62;20372;-71
2024/01/21 00:18:51;0.00;0.00;0.62;0.00;0.00;0.62;2.47;1.90;;;19.10;20.30;;;;;;2225301;62;20390;-69
2024/01/21 00:21:35;0.00;0.00;0.62;0.00;0.00;0.62;2.60;1.80;;;19.10;20.30;;;;;;2225933;62;20521;-69
2024/01/21 00:24:20;0.00;0.00;0.62;0.00;0.00;0.62;2.50;2.00;;;19.10;20.30;;;;;;2225354;62;20418;-68
2024/01/21 00:27:06;0.00;0.00;0.62;0.00;0.00;0.62;2.80;1.73;;;19.10;20.30;;;;;;2225005;62;20490;-71
2024/01/21 00:29:51;0.00;0.00;0.62;0.00;0.00;0.62;2.43;1.57;;;19.10;20.30;;;;;;2225063;62;20370;-70
2024/01/21 00:32:35;0.00;0.00;0.62;0.00;0.00;0.62;3.10;1.80;;;19.10;20.30;;;;;;2224982;62;20874;-70
2024/01/21 00:35:20;0.00;0.00;0.62;0.00;0.00;0.62;2.33;1.70;;;19.10;20.30;;;;;;2224587;62;20372;-71
2024/01/21 00:38:05;0.00;0.00;0.62;0.00;0.00;0.62;2.70;1.57;;;19.10;20.30;;;;;;2225090;62;20405;-70
2024/01/21 00:40:49;0.00;0.00;0.62;0.00;0.00;0.62;2.80;2.00;;;19.00;20.20;;;;;;2224862;62;20424;-67
2024/01/21 00:43:35;0.00;0.00;0.62;0.00;0.00;0.62;2.17;1.60;;;19.00;20.20;;;;;;2225149;62;20840;-68
2024/01/21 00:46:22;0.00;0.00;0.62;0.00;0.00;0.62;2.30;1.63;;;19.00;20.20;;;;;;2225055;62;20385;-68
2024/01/21 00:49:06;0.00;0.00;0.62;0.00;0.00;0.62;2.53;1.50;;;19.00;20.20;;;;;;2225350;62;20389;-68
2024/01/21 00:51:52;0.00;0.00;0.62;0.00;0.00;0.62;2.60;1.70;;;19.00;20.20;;;;;;2225131;62;20400;-67
2024/01/21 00:54:36;0.00;0.00;0.62;0.00;0.00;0.62;2.60;1.70;;;19.00;20.20;;;;;;2225231;62;20381;-69
2024/01/21 00:57:21;0.00;0.00;0.62;0.00;0.00;0.62;2.00;1.47;;;19.00;20.20;;;;;;2225063;62;20377;-68
2024/01/21 01:00:08;0.00;0.00;0.62;0.00;0.00;0.62;2.60;1.70;;;19.00;20.20;;;;;;2224935;62;20943;-68
2024/01/21 01:02:53;0.00;0.00;0.62;0.00;0.00;0.62;1.70;1.40;;;19.00;20.20;;;;;;2225085;62;20380;-68
2024/01/21 01:05:38;0.00;0.00;0.62;0.00;0.00;0.62;1.90;1.30;;;19.00;20.20;;;;;;2225223;62;20390;-69
2024/01/21 01:08:23;0.00;0.00;0.62;0.00;0.00;0.62;2.10;1.47;;;18.90;20.10;;;;;;2225206;62;20384;-68
2024/01/21 01:11:08;0.00;0.00;0.62;0.00;0.00;0.62;2.30;1.80;;;19.00;20.20;;;;;;2224743;62;20735;-67
2024/01/21 01:13:52;0.00;0.00;0.62;0.00;0.00;0.62;2.37;1.57;;;18.90;20.10;;;;;;2225313;62;20465;-69
2024/01/21 01:16:39;0.00;0.00;0.62;0.00;0.00;0.62;2.67;2.00;;;18.90;20.10;;;;;;2225109;62;20778;-67
2024/01/21 01:19:24;0.00;0.00;0.62;0.00;0.00;0.62;2.90;1.93;;;19.00;20.20;;;;;;2225047;62;20393;-69
2024/01/21 01:22:09;0.00;0.00;0.62;0.00;0.00;0.62;1.90;1.37;;;19.00;20.20;;;;;;2225084;62;20396;-68
2024/01/21 01:24:54;0.00;0.00;0.62;0.00;0.00;0.62;2.10;1.50;;;18.90;20.10;;;;;;2224968;62;20891;-68
2024/01/21 01:27:38;0.00;0.00;0.62;0.00;0.00;0.62;2.60;1.87;;;18.90;20.10;;;;;;2224798;62;20494;-68
2024/01/21 01:30:24;0.00;0.00;0.62;0.00;0.00;0.62;3.13;2.00;;;18.90;20.20;;;;;;2224796;62;20983;-69
2024/01/21 01:33:10;0.00;0.00;0.62;0.00;0.00;0.62;2.73;1.70;;;18.90;20.10;;;;;;2225060;62;20782;-68
2024/01/21 01:35:55;0.00;0.00;0.62;0.00;0.00;0.62;3.63;1.67;;;18.90;20.10;;;;;;2225250;62;20365;-68
2024/01/21 01:38:40;0.00;0.00;0.62;0.00;0.00;0.62;2.30;1.63;;;18.90;20.10;;;;;;2224921;62;20426;-68
2024/01/21 01:41:24;0.00;0.00;0.62;0.00;0.00;0.62;2.53;1.30;;;18.90;20.10;;;;;;2224686;62;20436;-68
2024/01/21 01:44:11;0.00;0.00;0.62;0.00;0.00;0.62;3.10;1.33;;;18.90;20.10;;;;;;2225253;62;20401;-71
2024/01/21 01:46:56;0.00;0.00;0.62;0.00;0.00;0.62;1.87;1.40;;;18.90;20.10;;;;;;2225012;62;20407;-68
2024/01/21 01:49:42;0.00;0.00;0.62;0.00;0.00;0.62;1.90;1.30;;;18.90;20.10;;;;;;2225107;62;20467;-70
2024/01/21 01:52:28;0.00;0.00;0.62;0.00;0.00;0.62;2.50;1.67;;;18.90;20.10;;;;;;2224869;62;20396;-70
2024/01/21 01:55:13;0.00;0.00;0.62;0.00;0.00;0.62;2.10;1.60;;;18.80;20.00;;;;;;2225047;62;20836;-70
2024/01/21 01:57:57;0.00;0.00;0.62;0.00;0.00;0.62;2.40;1.40;;;18.80;20.00;;;;;;2224688;62;20368;-70
2024/01/21 02:00:43;0.00;0.00;0.62;0.00;0.00;0.62;2.00;1.40;;;18.90;20.10;;;;;;2224197;62;20461;-69
2024/01/21 02:03:28;0.00;0.00;0.62;0.00;0.00;0.62;2.17;1.57;;;18.80;20.00;;;;;;2224921;62;20429;-70
2024/01/21 02:06:15;0.00;0.00;0.62;0.00;0.00;0.62;2.27;1.80;;;18.80;20.00;;;;;;2224775;62;20369;-70
2024/01/21 02:09:00;0.00;0.00;0.62;0.00;0.00;0.62;2.37;1.30;;;18.80;20.00;;;;;;2224893;62;20377;-70
2024/01/21 02:11:44;0.00;0.00;0.62;0.00;0.00;0.62;2.60;1.50;;;18.80;20.00;;;;;;2225026;62;20450;-71
2024/01/21 02:14:29;0.00;0.00;0.62;0.00;0.00;0.62;2.07;1.33;;;18.80;20.00;;;;;;2227211;62;20818;-70
2024/01/21 02:17:13;0.00;0.00;0.62;0.00;0.00;0.62;2.30;1.70;;;18.80;20.00;;;;;;2224872;62;20381;-70
2024/01/21 02:19:58;0.00;0.00;0.62;0.00;0.00;0.62;2.27;1.80;;;18.80;19.90;;;;;;2224452;62;20854;-69
2024/01/21 02:22:45;0.00;0.00;0.62;0.00;0.00;0.62;2.00;1.30;;;18.80;20.00;;;;;;2225807;62;20513;-69
2024/01/21 02:25:31;0.00;0.00;0.62;0.00;0.00;0.62;1.77;1.30;;;18.80;19.90;;;;;;2225149;62;20773;-69
2024/01/21 02:28:16;0.00;0.00;0.62;0.00;0.00;0.62;1.70;1.20;;;18.80;19.90;;;;;;2225530;62;20374;-69
2024/01/21 02:31:01;0.00;0.00;0.62;0.00;0.00;0.62;2.33;1.47;;;18.80;19.90;;;;;;2224856;62;20865;-69
2024/01/21 02:33:46;0.00;0.00;0.62;0.00;0.00;0.62;2.10;1.47;;;18.80;19.90;;;;;;2222255;62;20417;-71
2024/01/21 02:36:30;0.00;0.00;0.62;0.00;0.00;0.62;2.97;2.00;;;18.70;19.90;;;;;;2228537;59;20425;-69
2024/01/21 02:39:16;0.00;0.00;0.62;0.00;0.00;0.62;1.80;1.23;;;18.80;19.90;;;;;;2224038;62;20376;-70
2024/01/21 02:42:05;0.00;0.00;0.62;0.00;0.00;0.62;1.90;1.30;;;18.70;19.90;;;;;;2223353;62;20396;-69
2024/01/21 02:44:51;0.00;0.00;0.62;0.00;0.00;0.62;2.20;1.37;;;18.70;19.90;;;;;;2224688;62;20385;-69
2024/01/21 02:47:38;0.00;0.00;0.62;0.00;0.00;0.62;2.03;1.50;;;18.70;19.90;;;;;;2225062;62;20542;-70
2024/01/21 02:50:25;0.00;0.00;0.62;0.00;0.00;0.62;1.90;1.40;;;18.70;19.90;;;;;;2224636;62;20401;-69
2024/01/21 02:53:11;0.00;0.00;0.62;0.00;0.00;0.62;1.70;1.20;;;18.70;19.90;;;;;;2221336;62;20389;-69
2024/01/21 02:55:57;0.00;0.00;0.62;0.00;0.00;0.62;2.10;1.40;;;18.70;19.90;;;;;;2224910;62;20848;-69
2024/01/21 02:58:44;0.00;0.00;0.62;0.00;0.00;0.62;2.20;1.60;;;18.70;19.90;;;;;;2225205;62;20373;-69
2024/01/21 03:01:32;0.00;0.00;0.62;0.00;0.00;0.62;2.10;1.40;;;18.70;19.90;;;;;;2224768;62;21028;-68
2024/01/21 03:04:21;0.00;0.00;0.62;0.00;0.00;0.62;1.50;1.10;;;18.70;19.90;;;;;;2224960;62;21005;-68
2024/01/21 03:07:07;0.00;0.00;0.62;0.00;0.00;0.62;1.70;1.23;;;18.70;19.90;;;;;;2224753;62;20377;-68
2024/01/21 03:09:53;0.00;0.00;0.62;0.00;0.00;0.62;2.10;1.50;;;18.70;19.90;;;;;;2224829;62;20404;-69
2024/01/21 03:12:39;0.00;0.00;0.62;0.00;0.00;0.62;1.93;1.20;;;18.70;19.90;;;;;;2224919;62;20803;-71
2024/01/21 03:15:27;0.00;0.00;0.62;0.00;0.00;0.62;1.83;1.13;;;18.70;19.90;;;;;;2221903;62;20409;-70
2024/01/21 03:18:13;0.00;0.00;0.62;0.00;0.00;0.62;1.83;1.30;;;18.70;19.90;;;;;;2225031;62;20470;-72
2024/01/21 03:25:17;0.00;0.00;0.62;0.00;0.00;0.62;2.17;1.50;;;18.60;19.90;;;;;;2226186;62;20337;-68
2024/01/21 03:37:12;0.00;0.00;0.62;0.00;0.00;0.62;1.90;1.20;;;18.60;19.90;;;;;;2225470;62;20470;-70
2024/01/21 03:39:57;0.00;0.00;0.62;0.00;0.00;0.62;1.90;1.30;;;18.60;20.00;;;;;;2224828;62;20395;-69
2024/01/21 03:42:45;0.00;0.00;0.62;0.00;0.00;0.62;2.10;1.30;;;18.60;20.00;;;;;;2225334;62;20460;-72
2024/01/21 03:45:30;0.00;0.00;0.62;0.00;0.00;0.62;1.73;1.17;;;18.50;19.90;;;;;;2224878;62;21022;-71
2024/01/21 03:48:15;0.00;0.00;0.62;0.00;0.00;0.62;2.00;1.30;;;18.60;20.00;;;;;;2224937;62;20443;-70
2024/01/21 03:51:00;0.00;0.00;0.62;0.00;0.00;0.62;1.83;1.20;;;18.50;20.00;;;;;;2224932;62;20882;-69
2024/01/21 03:53:46;0.00;0.00;0.62;0.00;0.00;0.62;1.80;1.30;;;18.50;20.00;;;;;;2224718;62;20892;-71
2024/01/21 03:56:31;0.00;0.00;0.62;0.00;0.00;0.62;1.90;1.30;;;18.50;20.00;;;;;;2225116;62;20397;-71
2024/01/21 03:59:16;0.00;0.00;0.62;0.00;0.00;0.62;1.90;1.17;;;18.60;20.00;;;;;;2224930;62;20372;-69
2024/01/21 04:02:00;0.00;0.00;0.62;0.00;0.00;0.62;2.13;1.37;;;18.50;20.00;;;;;;2224894;62;20429;-71
2024/01/21 04:04:45;0.00;0.00;0.62;0.00;0.00;0.62;2.60;1.43;;;18.50;20.00;;;;;;2225011;62;20426;-70
2024/01/21 04:07:31;0.00;0.00;0.62;0.00;0.00;0.62;1.93;1.27;;;18.50;20.00;;;;;;2224980;62;20445;-71
2024/01/21 04:10:18;0.00;0.00;0.62;0.00;0.00;0.62;2.30;1.40;;;18.50;20.00;;;;;;2224884;62;20376;-70
2024/01/21 04:13:03;0.00;0.00;0.62;0.00;0.00;0.62;1.90;1.50;;;18.50;20.00;;;;;;2224929;62;20425;-70
2024/01/21 04:15:49;0.00;0.00;0.62;0.00;0.00;0.62;1.70;1.20;;;18.50;20.00;;;;;;2224740;62;20397;-69
2024/01/21 04:18:35;0.00;0.00;0.62;0.00;0.00;0.62;2.70;1.70;;;18.50;20.00;;;;;;2225121;62;20986;-70
2024/01/21 04:21:20;0.00;0.00;0.62;0.00;0.00;0.62;1.60;1.00;;;18.50;20.00;;;;;;2224505;62;20385;-72
2024/01/21 04:24:06;0.00;0.00;0.62;0.00;0.00;0.62;1.70;1.20;;;18.50;20.00;;;;;;2224888;62;20372;-70
2024/01/21 04:26:52;0.00;0.00;0.62;0.00;0.00;0.62;1.90;1.30;;;18.50;20.00;;;;;;2221762;62;20404;-70
2024/01/21 04:29:36;0.00;0.00;0.62;0.00;0.00;0.62;2.00;1.20;;;18.50;20.00;;;;;;2224790;62;20377;-69
2024/01/21 04:32:21;0.00;0.00;0.62;0.00;0.00;0.62;2.33;1.40;;;18.50;20.00;;;;;;2224813;62;20396;-71
2024/01/21 04:35:07;0.00;0.00;0.62;0.00;0.00;0.62;1.67;1.20;;;18.50;20.00;;;;;;2224713;62;20380;-70
2024/01/21 04:37:53;0.00;0.00;0.62;0.00;0.00;0.62;1.77;1.30;;;18.50;20.00;;;;;;2224414;62;20426;-69
2024/01/21 04:40:38;0.00;0.00;0.62;0.00;0.00;0.62;1.80;1.20;;;18.50;20.00;;;;;;2224731;62;20489;-69
2024/01/21 04:43:24;0.00;0.00;0.62;0.00;0.00;0.62;1.77;1.10;;;18.50;19.90;;;;;;2224773;62;20373;-69
2024/01/21 04:46:09;0.00;0.00;0.62;0.00;0.00;0.62;2.27;1.37;;;18.50;19.90;;;;;;2224848;62;20412;-72
2024/01/21 04:48:54;0.00;0.00;0.62;0.00;0.00;0.62;3.10;1.40;;;18.50;19.90;;;;;;2224850;62;20430;-70
2024/01/21 04:51:38;0.00;0.00;0.62;0.00;0.00;0.62;1.90;1.30;;;18.50;19.90;;;;;;2224587;62;20442;-69
2024/01/21 04:54:26;0.00;0.00;0.62;0.00;0.00;0.62;2.60;1.70;;;18.50;19.90;;;;;;2224875;62;20420;-70
2024/01/21 04:57:11;0.00;0.00;0.62;0.00;0.00;0.62;2.10;1.50;;;18.50;19.80;;;;;;2224876;62;20412;-71
2024/01/21 04:59:58;0.00;0.00;0.62;0.00;0.00;0.62;1.80;1.30;;;18.50;19.90;;;;;;2224423;62;20373;-69
2024/01/21 05:02:43;0.00;0.00;0.62;0.00;0.00;0.62;1.93;1.30;;;18.50;19.80;;;;;;2224959;62;20385;-68
2024/01/21 05:05:28;0.00;0.00;0.62;0.00;0.00;0.62;2.23;1.27;;;18.50;19.80;;;;;;2225455;62;20750;-69
2024/01/21 05:08:13;0.00;0.00;0.62;0.00;0.00;0.62;1.60;1.50;;;18.50;19.80;;;;;;2224857;62;20451;-68
2024/01/21 05:10:59;0.00;0.00;0.62;0.00;0.00;0.62;2.60;1.57;;;18.50;19.80;;;;;;2224648;62;20453;-70
2024/01/21 05:13:43;0.00;0.00;0.62;0.00;0.00;0.62;2.30;1.50;;;18.50;19.80;;;;;;2224662;62;20919;-69
2024/01/21 05:16:29;0.00;0.00;0.62;0.00;0.00;0.62;2.10;1.50;;;18.40;19.70;;;;;;2224621;62;20418;-70
2024/01/21 05:19:15;0.00;0.00;0.62;0.00;0.00;0.62;1.60;1.20;;;18.40;19.70;;;;;;2224783;62;20815;-70
2024/01/21 05:21:59;0.00;0.00;0.62;0.00;0.00;0.62;1.70;1.27;;;18.40;19.70;;;;;;2224432;62;20430;-70
2024/01/21 05:24:44;0.00;0.00;0.62;0.00;0.00;0.62;2.20;1.70;;;18.50;19.70;;;;;;2224825;62;20917;-71
2024/01/21 05:27:29;0.00;0.00;0.62;0.00;0.00;0.62;2.00;1.50;;;18.40;19.60;;;;;;2224608;62;20417;-67
2024/01/21 05:30:15;0.00;0.00;0.62;0.00;0.00;0.62;1.70;1.20;;;18.40;19.60;;;;;;2224312;62;20912;-70
2024/01/21 05:33:01;0.00;0.00;0.62;0.00;0.00;0.62;2.20;1.20;;;18.40;19.70;;;;;;2224589;62;20361;-72
2024/01/21 05:35:46;0.00;0.00;0.62;0.00;0.00;0.62;2.10;1.40;;;18.40;19.60;;;;;;2224547;62;20384;-72
2024/01/21 05:38:31;0.00;0.00;0.62;0.00;0.00;0.62;2.13;1.30;;;18.40;19.60;;;;;;2224735;62;20429;-67
2024/01/21 05:41:19;0.00;0.00;0.62;0.00;0.00;0.62;3.10;1.23;;;18.40;19.60;;;;;;2224548;62;20413;-69
2024/01/21 05:44:04;0.00;0.00;0.62;0.00;0.00;0.62;2.47;1.33;;;18.40;19.60;;;;;;2223930;62;20450;-70
2024/01/21 05:46:49;0.00;0.00;0.62;0.00;0.00;0.62;1.80;1.47;;;18.40;19.60;;;;;;2224702;62;20365;-70
2024/01/21 05:49:35;0.00;0.00;0.62;0.00;0.00;0.62;2.53;1.60;;;18.40;19.60;;;;;;2224609;62;20480;-70
2024/01/21 05:52:20;0.00;0.00;0.62;0.00;0.00;0.62;1.87;1.37;;;18.40;19.60;;;;;;2224222;62;20397;-70
2024/01/21 05:55:06;0.00;0.00;0.62;0.00;0.00;0.62;1.80;1.50;;;18.40;19.60;;;;;;2224611;62;20524;-69
2024/01/21 05:57:52;0.00;0.00;0.62;0.00;0.00;0.62;2.10;1.47;;;18.40;19.60;;;;;;2222281;62;20453;-70
2024/01/21 06:00:36;0.00;0.00;0.62;0.00;0.00;0.62;2.13;1.53;;;18.40;19.50;;;;;;2225132;62;20432;-70
2024/01/21 06:03:21;0.00;0.00;0.62;0.00;0.00;0.62;1.87;1.50;;;18.30;19.40;;;;;;2222180;62;20389;-70
2024/01/21 06:06:08;0.00;0.00;0.62;0.00;0.00;0.62;1.73;1.23;;;18.30;19.50;;;;;;2225232;62;20384;-70
2024/01/21 06:08:52;0.00;0.00;0.62;0.00;0.00;0.62;2.13;1.53;;;18.30;19.40;;;;;;2225628;62;20426;-68
2024/01/21 06:11:39;0.00;0.00;0.62;0.00;0.00;0.62;2.87;1.70;;;18.30;19.40;;;;;;2225355;62;20453;-69
2024/01/21 06:14:25;0.00;0.00;0.62;0.00;0.00;0.62;2.03;1.57;;;18.30;19.40;;;;;;2225277;62;20377;-69
2024/01/21 06:17:11;0.00;0.00;0.62;0.00;0.00;0.62;1.83;1.33;;;18.30;19.40;;;;;;2225058;62;20373;-68
2024/01/21 06:19:56;0.00;0.00;0.62;0.00;0.00;0.62;2.50;1.90;;;18.30;19.40;;;;;;2225248;62;20377;-71
2024/01/21 06:22:43;0.00;0.00;0.62;0.00;0.00;0.62;2.27;1.40;;;18.30;19.40;;;;;;2225296;62;20365;-68
2024/01/21 06:25:27;0.00;0.00;0.62;0.00;0.00;0.62;2.33;1.30;;;18.30;19.30;;;;;;2225293;62;20546;-68
2024/01/21 06:28:12;0.00;0.00;0.62;0.00;0.00;0.62;1.87;1.20;;;18.30;19.30;;;;;;2224907;62;20376;-68
2024/01/21 06:30:57;0.00;0.00;0.62;0.00;0.00;0.62;2.70;1.57;;;18.30;19.30;;;;;;2225477;62;20510;-69
2024/01/21 06:33:42;0.00;0.00;0.62;0.00;0.00;0.62;1.97;1.43;;;18.30;19.30;;;;;;2225610;62;20372;-69
2024/01/21 06:36:26;0.00;0.00;0.62;0.00;0.00;0.62;1.80;1.10;;;18.30;19.30;;;;;;2225347;62;20841;-69
2024/01/21 06:39:13;0.00;0.00;0.62;0.00;0.00;0.62;1.87;1.10;;;18.20;19.20;;;;;;2225428;62;20781;-68
2024/01/21 06:41:58;0.00;0.00;0.62;0.00;0.00;0.62;3.33;1.40;;;18.20;19.30;;;;;;2225606;62;20392;-69
2024/01/21 06:44:43;0.00;0.00;0.62;0.00;0.00;0.62;1.83;1.13;;;18.20;19.30;;;;;;2225187;62;20373;-70
2024/01/21 06:47:28;0.00;0.00;0.62;0.00;0.00;0.62;2.47;1.60;;;18.20;19.20;;;;;;2225398;62;20365;-70
2024/01/21 06:50:13;0.00;0.00;0.62;0.00;0.00;0.62;1.60;1.10;;;18.20;19.20;;;;;;2221839;62;20372;-69
2024/01/21 06:52:58;0.00;0.00;0.62;0.00;0.00;0.62;3.10;1.30;;;18.20;19.20;;;;;;2225157;62;20841;-70
2024/01/21 06:55:45;0.00;0.00;0.62;0.00;0.00;0.62;2.07;1.37;;;18.20;19.20;;;;;;2225179;62;20461;-71
2024/01/21 06:58:31;0.00;0.00;0.62;0.00;0.00;0.62;2.10;1.40;;;18.20;19.20;;;;;;2225894;62;20500;-70
2024/01/21 07:01:16;0.00;0.00;0.62;0.00;0.00;0.62;1.90;1.30;;;18.20;19.20;;;;;;2225456;62;20436;-69
2024/01/21 07:04:01;0.00;0.00;0.62;0.00;0.00;0.62;2.60;1.10;;;18.20;19.10;;;;;;2225691;62;20907;-70
2024/01/21 07:06:46;0.00;0.00;0.62;0.00;0.00;0.62;2.67;1.87;;;18.20;19.10;;;;;;2225263;62;20985;-70
2024/01/21 07:09:30;0.00;0.00;0.62;0.00;0.00;0.62;1.87;1.10;;;18.20;19.20;;;;;;2225090;62;20349;-70
2024/01/21 07:12:16;0.00;0.00;0.62;0.00;0.00;0.62;1.70;1.13;;;18.20;19.10;;;;;;2245048;41;20430;-70
2024/01/21 07:15:01;0.00;0.00;0.62;0.00;0.00;0.62;2.00;1.30;;;18.20;19.20;;;;;;2232603;62;20419;-71
2024/01/21 07:17:48;0.00;0.00;0.62;0.00;0.00;0.62;1.63;1.23;;;18.10;19.10;;;;;;2232969;62;20412;-70
2024/01/21 07:20:34;0.00;0.00;0.62;0.00;0.00;0.62;1.60;1.10;;;18.10;19.10;;;;;;2229084;62;20430;-70
2024/01/21 07:23:21;0.00;0.00;0.62;0.00;0.00;0.62;1.80;1.10;;;18.10;19.60;;;;;;2233017;62;20364;-70
2024/01/21 07:26:08;0.00;0.00;0.62;0.00;0.00;0.62;1.77;1.23;;;18.10;19.10;;;;;;2229442;62;20407;-70
2024/01/21 07:28:56;0.00;0.00;0.62;0.00;0.00;0.62;1.90;1.30;;;18.10;19.10;;;;;;2232683;62;20367;-70
2024/01/21 07:31:42;0.00;0.00;0.62;0.00;0.00;0.62;1.60;1.30;;;18.10;19.10;;;;;;2229660;62;20858;-69
2024/01/21 07:34:30;0.00;0.00;0.62;0.00;0.00;0.62;2.07;1.40;;;18.10;19.20;;;;;;2233117;62;20375;-69
2024/01/21 07:37:16;0.00;0.00;0.62;0.00;0.00;0.62;1.73;1.30;;;18.10;19.70;;;;;;2232852;62;20376;-71
2024/01/21 07:40:05;0.00;0.00;0.62;0.00;0.00;0.62;1.80;1.10;;;18.10;19.20;;;;;;2232619;62;20413;-69
2024/01/21 07:42:52;0.00;0.00;0.62;0.00;0.00;0.62;1.77;1.20;;;18.10;19.30;;;;;;2232360;62;20351;-70
2024/01/21 07:45:58;0.00;0.00;0.62;0.00;0.00;0.62;1.70;1.10;;;18.10;19.30;;;;;;2232429;62;20493;-69
2024/01/21 07:48:45;0.00;0.00;0.62;0.00;0.00;0.62;1.80;1.00;;;18.10;19.30;;;;;;2229900;62;20377;-69
2024/01/21 07:51:32;0.00;0.00;0.62;0.00;0.00;0.62;1.60;1.10;;;18.10;19.30;;;;;;2232522;62;20414;-69
2024/01/21 07:54:18;0.00;0.00;0.62;0.00;0.00;0.62;1.43;0.80;;;18.10;19.30;;;;;;2232538;62;20980;-69
2024/01/21 07:57:05;0.00;0.00;0.62;0.00;0.00;0.62;1.80;1.10;;;18.10;19.30;;;;;;2232605;62;20423;-69
2024/01/21 07:59:52;0.00;0.00;0.62;0.00;0.00;0.62;1.80;1.10;;;18.10;19.30;;;;;;2232549;62;20424;-70
2024/01/21 08:02:40;0.00;0.00;0.62;0.00;0.00;0.62;1.60;1.03;;;18.10;19.90;;;;;;2232625;62;20770;-69
2024/01/21 08:05:28;0.00;0.00;0.62;0.00;0.00;0.62;1.67;1.10;;;18.10;19.40;;;;;;2232754;62;20360;-70
2024/01/21 08:08:14;0.00;0.00;0.62;0.00;0.00;0.62;1.77;1.30;;;18.00;19.30;;;;;;2232699;62;20885;-69
2024/01/21 08:11:06;0.00;0.00;0.62;0.00;0.00;0.62;1.50;1.00;;;18.10;19.40;;;;;;2232410;62;20402;-71
2024/01/21 08:13:53;0.00;0.00;0.62;0.00;0.00;0.62;1.60;1.10;;;18.10;19.40;;;;;;2229326;62;20444;-69
2024/01/21 08:16:39;0.00;0.00;0.62;0.00;0.00;0.62;1.67;1.00;;;18.00;19.30;;;;;;2232264;62;20447;-70
2024/01/21 08:19:37;0.00;0.00;0.62;0.00;0.00;0.62;1.63;1.17;;;18.10;19.40;;;;;;2232593;62;20481;-69
2024/01/21 08:22:24;0.00;0.00;0.62;0.00;0.00;0.62;1.63;1.00;;;18.10;19.40;;;;;;2232251;62;20419;-69
2024/01/21 08:25:11;0.00;0.00;0.62;0.00;0.00;0.62;1.80;0.90;;;18.00;19.40;;;;;;2232424;62;20416;-70
2024/01/21 08:27:58;0.00;0.00;0.62;0.00;0.00;0.62;1.70;1.00;;;18.10;19.40;;;;;;2232628;62;20370;-69
2024/01/21 08:30:45;0.00;0.00;0.62;0.00;0.00;0.62;1.60;1.13;;;18.00;19.40;;;;;;2231538;62;20845;-69
2024/01/21 08:33:35;0.00;0.00;0.62;0.00;0.00;0.62;2.23;1.43;;;18.00;19.40;;;;;;2232139;62;20463;-69
2024/01/21 08:36:26;0.00;0.00;0.62;0.00;0.00;0.62;1.80;1.10;;;18.10;19.50;;;;;;2232731;62;20384;-69
2024/01/21 08:39:15;0.00;0.00;0.62;0.00;0.00;0.62;1.93;0.90;;;18.00;19.40;;;;;;2232844;62;20407;-69
2024/01/21 08:42:01;0.00;0.00;0.62;0.00;0.00;0.62;1.87;1.10;;;18.00;19.40;;;;;;2232700;62;20475;-69
2024/01/21 08:44:47;0.00;0.00;0.62;0.00;0.00;0.62;1.80;1.33;;;18.10;19.40;;;;;;2232441;62;20390;-69
2024/01/21 08:47:35;0.00;0.00;0.62;0.00;0.00;0.62;1.70;1.10;;;18.10;19.40;;;;;;2232729;62;20412;-70
2024/01/21 08:50:21;0.00;0.00;0.62;0.00;0.00;0.62;1.50;0.80;;;18.10;19.40;;;;;;2232602;62;20427;-70
2024/01/21 08:53:10;0.00;0.00;0.62;0.00;0.00;0.62;2.00;1.23;;;18.00;19.30;;;;;;2231810;62;20435;-71
2024/01/21 08:55:56;0.00;0.00;0.62;0.00;0.00;0.62;1.63;0.90;;;18.00;19.30;;;;;;2231935;62;20468;-70
2024/01/21 08:58:43;0.00;0.00;0.62;0.00;0.00;0.62;1.60;1.07;;;18.00;19.30;;;;;;2232377;62;20387;-70
2024/01/21 09:01:30;0.00;0.00;0.62;0.00;0.00;0.62;1.50;1.00;;;18.00;19.30;;;;;;2232588;62;20477;-69
2024/01/21 09:04:17;0.00;0.00;0.62;0.00;0.00;0.62;1.70;1.10;;;18.00;19.30;;;;;;2232451;62;20921;-70
2024/01/21 09:07:03;0.00;0.00;0.62;0.00;0.00;0.62;2.00;1.13;;;18.00;19.20;;;;;;2232637;62;20360;-69
2024/01/21 09:09:57;0.00;0.00;0.62;0.00;0.00;0.62;2.20;1.17;;;18.10;19.30;;;;;;2232641;62;20371;-68
2024/01/21 09:12:47;0.00;0.00;0.62;0.00;0.00;0.62;2.60;1.00;;;18.00;19.20;;;;;;2232603;62;20391;-67
2024/01/21 09:15:34;0.00;0.00;0.62;0.00;0.00;0.62;1.80;1.07;;;18.00;19.20;;;;;;2232675;62;20901;-67
2024/01/21 09:18:20;0.00;0.00;0.62;0.00;0.00;0.62;1.60;1.10;;;18.00;19.20;;;;;;2232559;62;20399;-67
2024/01/21 09:21:08;0.00;0.00;0.62;0.00;0.00;0.62;1.60;0.97;;;18.00;19.20;;;;;;2233017;62;20451;-67
2024/01/21 09:24:01;0.00;0.00;0.62;0.00;0.00;0.62;1.60;1.27;;;18.00;19.20;;;;;;2232220;62;20913;-68
2024/01/21 09:26:55;0.00;0.00;0.62;0.00;0.00;0.62;1.73;1.10;;;18.00;19.20;;;;;;2232581;62;20395;-68
2024/01/21 09:29:42;0.00;0.00;0.62;0.00;0.00;0.62;1.60;1.00;;;18.00;19.20;;;;;;2232320;62;20716;-67
2024/01/21 09:32:30;0.00;0.00;0.62;0.00;0.00;0.62;1.50;1.10;;;18.00;19.20;;;;;;2232603;62;20941;-67
2024/01/21 09:35:22;0.00;0.00;0.62;0.00;0.00;0.62;1.70;1.03;;;18.00;19.20;;;;;;2232392;62;20379;-68
2024/01/21 09:38:10;0.00;0.00;0.62;0.00;0.00;0.62;2.17;1.50;;;18.00;19.20;;;;;;2232665;62;20370;-67
2024/01/21 09:41:07;0.00;0.00;0.62;0.00;0.00;0.62;2.10;1.40;;;18.00;19.20;;;;;;2232130;62;20391;-67
2024/01/21 11:06:10;0.00;0.00;0.62;0.00;0.00;0.62;1.60;1.20;;;17.90;19.40;;;;;;2234079;62;20376;-67
2024/01/21 11:18:44;0.00;0.00;0.62;0.00;0.00;0.62;1.80;1.17;;;17.90;19.30;;;;;;2233309;62;20475;-67
2024/01/21 11:21:56;0.00;0.00;0.62;0.00;0.00;0.62;1.80;1.17;;;17.90;19.30;;;;;;2232954;62;20436;-68
2024/01/21 11:46:05;0.00;0.00;0.62;0.00;0.00;0.62;1.80;1.30;;;18.00;19.40;;;;;;2231808;62;20367;-68
2024/01/21 12:06:10;0.00;0.00;0.62;0.00;0.00;0.62;2.47;1.50;;;18.00;19.40;;;;;;2232827;62;20345;-68
2024/01/21 12:08:55;0.00;0.00;0.62;0.00;0.00;0.62;3.70;1.50;;;18.00;19.40;;;;;;2231881;62;20383;-67
2024/01/21 12:11:41;0.00;0.00;0.62;0.00;0.00;0.62;2.10;1.33;;;18.00;19.40;;;;;;2231251;62;20459;-67
2024/01/21 12:14:26;0.00;0.00;0.62;0.00;0.00;0.62;3.00;1.70;;;18.00;19.40;;;;;;2233753;62;20399;-67
2024/01/21 12:17:10;0.00;0.00;0.62;0.00;0.00;0.62;2.40;1.80;;;18.00;19.30;;;;;;2231573;62;20376;-67
2024/01/21 12:19:55;0.00;0.00;0.62;0.00;0.00;0.62;2.40;2.10;;;18.00;19.30;;;;;;2231408;62;20375;-69
2024/01/21 12:22:44;0.00;0.00;0.62;0.00;0.00;0.62;2.20;1.50;;;18.00;19.30;;;;;;2231513;62;20786;-67
2024/01/21 12:25:30;0.00;0.00;0.62;0.00;0.00;0.62;3.13;1.97;;;18.00;19.30;;;;;;2231677;62;20383;-68
2024/01/21 12:28:15;0.00;0.00;0.62;0.00;0.00;0.62;2.60;1.73;;;18.10;19.30;;;;;;2231607;62;20418;-68
2024/01/21 12:31:00;0.00;0.00;0.62;0.00;0.00;0.62;1.70;1.40;;;18.10;19.30;;;;;;2231347;62;20395;-67
2024/01/21 12:33:45;0.00;0.00;0.62;0.00;0.00;0.62;2.50;1.87;;;18.10;19.30;;;;;;2231825;62;20457;-67
2024/01/21 12:36:31;0.00;0.00;0.62;0.00;0.00;0.62;2.27;1.40;;;18.10;19.30;;;;;;2232145;62;20958;-68
2024/01/21 12:39:21;0.00;0.00;0.62;0.00;0.00;0.62;1.90;1.30;;;18.10;19.30;;;;;;2231019;62;20427;-69
2024/01/21 12:42:05;0.00;0.00;0.62;0.00;0.00;0.62;2.27;1.57;;;18.10;19.30;;;;;;2231740;62;20527;-68
2024/01/21 12:44:50;0.00;0.00;0.62;0.00;0.00;0.62;2.20;1.70;;;18.10;19.30;;;;;;2231572;62;20368;-68
2024/01/21 12:47:35;0.00;0.00;0.62;0.00;0.00;0.62;2.40;1.90;;;18.10;19.30;;;;;;2231749;62;20479;-68
2024/01/21 12:50:23;0.00;0.00;0.62;0.00;0.00;0.62;3.30;1.93;;;18.10;19.80;;;;;;2231642;62;20399;-68
2024/01/21 12:53:08;0.00;0.00;0.62;0.00;0.00;0.62;1.90;1.50;;;18.10;19.30;;;;;;2231248;62;20383;-69
2024/01/21 12:55:54;0.00;0.00;0.62;0.00;0.00;0.62;2.23;1.60;;;18.10;19.30;;;;;;2231582;62;20430;-68
2024/01/21 12:58:39;0.00;0.00;0.62;0.00;0.00;0.62;2.67;1.63;;;18.10;19.30;;;;;;2231463;62;20384;-70
2024/01/21 13:01:24;0.00;0.00;0.62;0.00;0.00;0.62;2.07;1.37;;;18.10;19.30;;;;;;2231692;62;20473;-68
2024/01/21 13:04:10;0.00;0.00;0.62;0.00;0.00;0.62;2.27;1.50;;;18.10;19.30;;;;;;2232103;62;20403;-68
2024/01/21 13:06:55;0.00;0.00;0.62;0.00;0.00;0.62;3.43;2.00;;;18.20;19.40;;;;;;2231362;62;20616;-68
2024/01/21 13:09:40;0.00;0.00;0.62;0.00;0.00;0.62;2.10;1.50;;;18.10;19.30;;;;;;2230942;62;20966;-68
2024/01/21 13:12:27;0.00;0.00;0.62;0.00;0.00;0.62;3.07;2.17;;;18.20;19.40;;;;;;2230769;62;20479;-69
2024/01/21 13:15:12;0.00;0.00;0.62;0.00;0.00;0.62;2.70;2.03;;;18.20;19.40;;;;;;2230874;62;20835;-69
2024/01/21 13:17:57;0.00;0.00;0.62;0.00;0.00;0.62;2.83;1.93;;;18.20;19.40;;;;;;2231057;62;20371;-70
2024/01/21 13:20:42;0.00;0.00;0.62;0.00;0.00;0.62;2.40;2.00;;;18.20;19.40;;;;;;2231398;62;20785;-67